sensor_id;sensor_type;location;lat;lon;timestamp;P1;durP1;ratioP1;P2;durP2;ratioP2
11338;SDS011;5724;42.684;23.252;2023-07-13T00:01:49;12.50;;;5.30;;
11338;SDS011;5724;42.684;23.252;2023-07-13T00:04:16;5.72;;;5.22;;
11338;SDS011;5724;42.684;23.252;2023-07-13T00:06:43;6.20;;;5.65;;
11338;SDS011;5724;42.684;23.252;2023-07-13T00:09:12;5.55;;;5.15;;
11338;SDS011;5724;42.684;23.252;2023-07-13T00:11:42;5.43;;;4.80;;
11338;SDS011;5724;42.684;23.252;2023-07-13T00:14:08;5.35;;;4.65;;
11338;SDS011;5724;42.684;23.252;2023-07-13T00:16:35;5.47;;;5.07;;
11338;SDS011;5724;42.684;23.252;2023-07-13T00:19:03;5.45;;;5.00;;
11338;SDS011;5724;42.684;23.252;2023-07-13T00:21:29;7.78;;;4.82;;
11338;SDS011;5724;42.684;23.252;2023-07-13T00:23:54;6.13;;;5.53;;
11338;SDS011;5724;42.684;23.252;2023-07-13T00:26:20;5.07;;;4.78;;
11338;SDS011;5724;42.684;23.252;2023-07-13T00:28:45;5.35;;;4.88;;
11338;SDS011;5724;42.684;23.252;2023-07-13T00:31:11;5.65;;;5.18;;
11338;SDS011;5724;42.684;23.252;2023-07-13T00:33:39;5.75;;;4.65;;
11338;SDS011;5724;42.684;23.252;2023-07-13T00:36:05;7.68;;;5.85;;
11338;SDS011;5724;42.684;23.252;2023-07-13T00:38:32;6.15;;;5.28;;
11338;SDS011;5724;42.684;23.252;2023-07-13T00:40:57;5.75;;;5.28;;
11338;SDS011;5724;42.684;23.252;2023-07-13T00:43:25;5.75;;;5.20;;
11338;SDS011;5724;42.684;23.252;2023-07-13T00:48:19;7.00;;;5.00;;
11338;SDS011;5724;42.684;23.252;2023-07-13T00:50:47;5.78;;;5.25;;
11338;SDS011;5724;42.684;23.252;2023-07-13T00:53:15;6.13;;;4.88;;
11338;SDS011;5724;42.684;23.252;2023-07-13T00:55:42;5.63;;;5.07;;
11338;SDS011;5724;42.684;23.252;2023-07-13T00:58:08;5.70;;;5.20;;
11338;SDS011;5724;42.684;23.252;2023-07-13T01:00:35;5.60;;;5.10;;
11338;SDS011;5724;42.684;23.252;2023-07-13T01:03:03;5.07;;;4.68;;
11338;SDS011;5724;42.684;23.252;2023-07-13T01:05:30;5.45;;;4.95;;
11338;SDS011;5724;42.684;23.252;2023-07-13T01:07:57;5.25;;;4.82;;
11338;SDS011;5724;42.684;23.252;2023-07-13T01:10:25;5.18;;;4.60;;
11338;SDS011;5724;42.684;23.252;2023-07-13T01:12:51;5.82;;;5.00;;
11338;SDS011;5724;42.684;23.252;2023-07-13T01:18:11;5.85;;;5.28;;
11338;SDS011;5724;42.684;23.252;2023-07-13T01:20:46;5.20;;;4.70;;
11338;SDS011;5724;42.684;23.252;2023-07-13T01:23:16;6.22;;;5.07;;
11338;SDS011;5724;42.684;23.252;2023-07-13T01:25:41;5.28;;;4.82;;
11338;SDS011;5724;42.684;23.252;2023-07-13T01:28:08;5.38;;;4.97;;
11338;SDS011;5724;42.684;23.252;2023-07-13T01:30:37;5.75;;;5.32;;
11338;SDS011;5724;42.684;23.252;2023-07-13T01:33:05;5.65;;;5.32;;
11338;SDS011;5724;42.684;23.252;2023-07-13T01:35:32;5.30;;;4.93;;
11338;SDS011;5724;42.684;23.252;2023-07-13T01:37:58;5.75;;;5.45;;
11338;SDS011;5724;42.684;23.252;2023-07-13T01:40:26;6.55;;;5.90;;
11338;SDS011;5724;42.684;23.252;2023-07-13T01:42:52;5.43;;;5.05;;
11338;SDS011;5724;42.684;23.252;2023-07-13T01:45:17;7.32;;;5.10;;
11338;SDS011;5724;42.684;23.252;2023-07-13T01:47:43;5.90;;;5.40;;
11338;SDS011;5724;42.684;23.252;2023-07-13T01:50:08;5.70;;;5.30;;
11338;SDS011;5724;42.684;23.252;2023-07-13T01:52:34;6.18;;;5.68;;
11338;SDS011;5724;42.684;23.252;2023-07-13T01:55:00;5.60;;;5.18;;
11338;SDS011;5724;42.684;23.252;2023-07-13T01:57:26;5.72;;;5.15;;
11338;SDS011;5724;42.684;23.252;2023-07-13T01:59:51;6.15;;;5.63;;
11338;SDS011;5724;42.684;23.252;2023-07-13T02:02:16;5.80;;;5.30;;
11338;SDS011;5724;42.684;23.252;2023-07-13T02:04:42;5.53;;;5.03;;
11338;SDS011;5724;42.684;23.252;2023-07-13T02:07:08;5.95;;;5.53;;
11338;SDS011;5724;42.684;23.252;2023-07-13T02:09:34;5.72;;;5.22;;
11338;SDS011;5724;42.684;23.252;2023-07-13T02:12:00;6.00;;;5.55;;
11338;SDS011;5724;42.684;23.252;2023-07-13T02:14:25;5.45;;;5.03;;
11338;SDS011;5724;42.684;23.252;2023-07-13T02:16:51;5.65;;;5.15;;
11338;SDS011;5724;42.684;23.252;2023-07-13T02:19:16;7.50;;;5.38;;
11338;SDS011;5724;42.684;23.252;2023-07-13T02:21:42;6.40;;;5.90;;
11338;SDS011;5724;42.684;23.252;2023-07-13T02:24:08;6.00;;;5.30;;
11338;SDS011;5724;42.684;23.252;2023-07-13T02:26:33;7.82;;;6.07;;
11338;SDS011;5724;42.684;23.252;2023-07-13T02:29:00;5.82;;;5.40;;
11338;SDS011;5724;42.684;23.252;2023-07-13T02:31:25;8.60;;;5.55;;
11338;SDS011;5724;42.684;23.252;2023-07-13T02:33:51;7.05;;;6.00;;
11338;SDS011;5724;42.684;23.252;2023-07-13T02:36:16;5.70;;;5.30;;
11338;SDS011;5724;42.684;23.252;2023-07-13T02:38:43;5.95;;;5.55;;
11338;SDS011;5724;42.684;23.252;2023-07-13T02:41:09;5.85;;;5.35;;
11338;SDS011;5724;42.684;23.252;2023-07-13T02:43:34;5.90;;;5.60;;
11338;SDS011;5724;42.684;23.252;2023-07-13T02:46:01;6.80;;;6.10;;
11338;SDS011;5724;42.684;23.252;2023-07-13T02:48:32;7.03;;;6.38;;
11338;SDS011;5724;42.684;23.252;2023-07-13T02:50:58;6.38;;;5.93;;
11338;SDS011;5724;42.684;23.252;2023-07-13T02:53:24;6.20;;;5.63;;
11338;SDS011;5724;42.684;23.252;2023-07-13T02:55:50;7.32;;;6.20;;
11338;SDS011;5724;42.684;23.252;2023-07-13T02:58:15;8.57;;;5.85;;
11338;SDS011;5724;42.684;23.252;2023-07-13T03:00:45;6.50;;;5.93;;
11338;SDS011;5724;42.684;23.252;2023-07-13T03:03:14;6.05;;;5.50;;
11338;SDS011;5724;42.684;23.252;2023-07-13T03:05:40;7.35;;;6.30;;
11338;SDS011;5724;42.684;23.252;2023-07-13T03:08:07;6.85;;;6.10;;
11338;SDS011;5724;42.684;23.252;2023-07-13T03:10:33;7.20;;;6.50;;
11338;SDS011;5724;42.684;23.252;2023-07-13T03:12:59;6.72;;;6.13;;
11338;SDS011;5724;42.684;23.252;2023-07-13T03:15:24;7.07;;;6.50;;
11338;SDS011;5724;42.684;23.252;2023-07-13T03:17:49;7.00;;;6.40;;
11338;SDS011;5724;42.684;23.252;2023-07-13T03:20:15;7.88;;;7.18;;
11338;SDS011;5724;42.684;23.252;2023-07-13T03:22:41;7.68;;;7.03;;
11338;SDS011;5724;42.684;23.252;2023-07-13T03:25:07;8.45;;;7.53;;
11338;SDS011;5724;42.684;23.252;2023-07-13T03:27:33;8.93;;;7.60;;
11338;SDS011;5724;42.684;23.252;2023-07-13T03:29:58;8.65;;;7.85;;
11338;SDS011;5724;42.684;23.252;2023-07-13T03:32:24;9.02;;;8.23;;
11338;SDS011;5724;42.684;23.252;2023-07-13T03:34:49;8.93;;;8.15;;
11338;SDS011;5724;42.684;23.252;2023-07-13T03:37:14;8.00;;;7.40;;
11338;SDS011;5724;42.684;23.252;2023-07-13T03:39:40;7.70;;;6.93;;
11338;SDS011;5724;42.684;23.252;2023-07-13T03:42:06;7.68;;;6.95;;
11338;SDS011;5724;42.684;23.252;2023-07-13T03:44:31;7.95;;;7.45;;
11338;SDS011;5724;42.684;23.252;2023-07-13T03:46:57;8.43;;;7.65;;
11338;SDS011;5724;42.684;23.252;2023-07-13T03:49:22;10.45;;;7.53;;
11338;SDS011;5724;42.684;23.252;2023-07-13T03:51:48;7.88;;;7.28;;
11338;SDS011;5724;42.684;23.252;2023-07-13T03:54:14;8.85;;;7.55;;
11338;SDS011;5724;42.684;23.252;2023-07-13T03:56:40;8.23;;;7.53;;
11338;SDS011;5724;42.684;23.252;2023-07-13T03:59:07;8.43;;;7.85;;
11338;SDS011;5724;42.684;23.252;2023-07-13T04:01:33;7.28;;;6.82;;
11338;SDS011;5724;42.684;23.252;2023-07-13T04:03:58;8.57;;;7.88;;
11338;SDS011;5724;42.684;23.252;2023-07-13T04:06:26;7.90;;;7.30;;
11338;SDS011;5724;42.684;23.252;2023-07-13T04:08:55;9.38;;;7.60;;
11338;SDS011;5724;42.684;23.252;2023-07-13T04:11:22;8.73;;;7.90;;
11338;SDS011;5724;42.684;23.252;2023-07-13T04:13:50;8.43;;;7.55;;
11338;SDS011;5724;42.684;23.252;2023-07-13T04:16:16;8.02;;;7.47;;
11338;SDS011;5724;42.684;23.252;2023-07-13T04:18:42;9.23;;;7.90;;
11338;SDS011;5724;42.684;23.252;2023-07-13T04:21:09;8.20;;;7.70;;
11338;SDS011;5724;42.684;23.252;2023-07-13T04:23:35;7.97;;;7.38;;
11338;SDS011;5724;42.684;23.252;2023-07-13T04:26:00;8.43;;;7.70;;
11338;SDS011;5724;42.684;23.252;2023-07-13T04:28:26;8.23;;;7.60;;
11338;SDS011;5724;42.684;23.252;2023-07-13T04:30:52;8.70;;;7.68;;
11338;SDS011;5724;42.684;23.252;2023-07-13T04:33:18;8.23;;;7.50;;
11338;SDS011;5724;42.684;23.252;2023-07-13T04:35:47;9.60;;;8.75;;
11338;SDS011;5724;42.684;23.252;2023-07-13T04:38:19;10.70;;;9.32;;
11338;SDS011;5724;42.684;23.252;2023-07-13T04:40:45;9.80;;;8.98;;
11338;SDS011;5724;42.684;23.252;2023-07-13T04:43:11;12.18;;;8.88;;
11338;SDS011;5724;42.684;23.252;2023-07-13T04:45:36;13.90;;;9.13;;
11338;SDS011;5724;42.684;23.252;2023-07-13T04:48:02;11.10;;;10.02;;
11338;SDS011;5724;42.684;23.252;2023-07-13T04:50:28;11.40;;;10.27;;
11338;SDS011;5724;42.684;23.252;2023-07-13T04:52:54;10.77;;;9.18;;
11338;SDS011;5724;42.684;23.252;2023-07-13T04:55:20;10.32;;;8.90;;
11338;SDS011;5724;42.684;23.252;2023-07-13T04:57:45;9.63;;;8.48;;
11338;SDS011;5724;42.684;23.252;2023-07-13T05:00:12;8.73;;;7.85;;
11338;SDS011;5724;42.684;23.252;2023-07-13T05:02:39;8.60;;;8.10;;
11338;SDS011;5724;42.684;23.252;2023-07-13T05:05:05;8.93;;;8.13;;
11338;SDS011;5724;42.684;23.252;2023-07-13T05:07:31;8.77;;;7.93;;
11338;SDS011;5724;42.684;23.252;2023-07-13T05:09:58;9.27;;;8.30;;
11338;SDS011;5724;42.684;23.252;2023-07-13T05:12:24;8.73;;;8.02;;
11338;SDS011;5724;42.684;23.252;2023-07-13T05:14:50;8.43;;;7.82;;
11338;SDS011;5724;42.684;23.252;2023-07-13T05:17:16;9.95;;;7.30;;
11338;SDS011;5724;42.684;23.252;2023-07-13T05:19:41;8.73;;;7.88;;
11338;SDS011;5724;42.684;23.252;2023-07-13T05:22:06;8.10;;;7.38;;
11338;SDS011;5724;42.684;23.252;2023-07-13T05:24:32;7.63;;;7.00;;
11338;SDS011;5724;42.684;23.252;2023-07-13T05:26:58;8.93;;;7.43;;
11338;SDS011;5724;42.684;23.252;2023-07-13T05:29:24;8.88;;;8.02;;
11338;SDS011;5724;42.684;23.252;2023-07-13T05:31:49;9.35;;;7.88;;
11338;SDS011;5724;42.684;23.252;2023-07-13T05:34:15;8.77;;;7.97;;
11338;SDS011;5724;42.684;23.252;2023-07-13T05:36:41;9.40;;;8.80;;
11338;SDS011;5724;42.684;23.252;2023-07-13T05:39:06;9.65;;;8.77;;
11338;SDS011;5724;42.684;23.252;2023-07-13T05:41:32;9.93;;;9.13;;
11338;SDS011;5724;42.684;23.252;2023-07-13T05:43:57;9.45;;;8.07;;
11338;SDS011;5724;42.684;23.252;2023-07-13T05:46:23;11.70;;;9.07;;
11338;SDS011;5724;42.684;23.252;2023-07-13T05:48:49;10.68;;;8.93;;
11338;SDS011;5724;42.684;23.252;2023-07-13T05:51:15;9.93;;;8.93;;
11338;SDS011;5724;42.684;23.252;2023-07-13T05:53:40;10.10;;;9.07;;
11338;SDS011;5724;42.684;23.252;2023-07-13T05:56:05;12.20;;;9.60;;
11338;SDS011;5724;42.684;23.252;2023-07-13T05:58:31;16.15;;;9.55;;
11338;SDS011;5724;42.684;23.252;2023-07-13T06:01:00;11.07;;;9.05;;
11338;SDS011;5724;42.684;23.252;2023-07-13T06:03:31;9.25;;;8.32;;
11338;SDS011;5724;42.684;23.252;2023-07-13T06:05:57;14.85;;;8.93;;
11338;SDS011;5724;42.684;23.252;2023-07-13T06:08:25;10.65;;;9.52;;
11338;SDS011;5724;42.684;23.252;2023-07-13T06:10:51;13.40;;;9.52;;
11338;SDS011;5724;42.684;23.252;2023-07-13T06:13:18;10.68;;;9.10;;
11338;SDS011;5724;42.684;23.252;2023-07-13T06:15:47;9.65;;;8.77;;
11338;SDS011;5724;42.684;23.252;2023-07-13T06:18:16;10.52;;;9.38;;
11338;SDS011;5724;42.684;23.252;2023-07-13T06:20:41;10.70;;;8.70;;
11338;SDS011;5724;42.684;23.252;2023-07-13T06:23:08;11.82;;;9.32;;
11338;SDS011;5724;42.684;23.252;2023-07-13T06:25:34;9.70;;;8.90;;
11338;SDS011;5724;42.684;23.252;2023-07-13T06:27:59;10.27;;;9.35;;
11338;SDS011;5724;42.684;23.252;2023-07-13T06:30:25;9.48;;;8.50;;
11338;SDS011;5724;42.684;23.252;2023-07-13T06:32:52;9.55;;;8.77;;
11338;SDS011;5724;42.684;23.252;2023-07-13T06:35:17;10.32;;;9.43;;
11338;SDS011;5724;42.684;23.252;2023-07-13T06:37:43;9.88;;;8.85;;
11338;SDS011;5724;42.684;23.252;2023-07-13T06:40:08;13.23;;;8.77;;
11338;SDS011;5724;42.684;23.252;2023-07-13T06:42:34;11.85;;;8.68;;
11338;SDS011;5724;42.684;23.252;2023-07-13T06:45:00;12.75;;;8.93;;
11338;SDS011;5724;42.684;23.252;2023-07-13T06:47:26;10.88;;;8.20;;
11338;SDS011;5724;42.684;23.252;2023-07-13T06:49:52;10.38;;;8.20;;
11338;SDS011;5724;42.684;23.252;2023-07-13T06:52:17;14.23;;;8.90;;
11338;SDS011;5724;42.684;23.252;2023-07-13T06:54:42;12.05;;;8.90;;
11338;SDS011;5724;42.684;23.252;2023-07-13T06:57:08;12.63;;;9.18;;
11338;SDS011;5724;42.684;23.252;2023-07-13T06:59:34;16.15;;;9.60;;
11338;SDS011;5724;42.684;23.252;2023-07-13T07:01:59;12.27;;;9.80;;
11338;SDS011;5724;42.684;23.252;2023-07-13T07:04:25;12.80;;;10.93;;
11338;SDS011;5724;42.684;23.252;2023-07-13T07:06:50;15.63;;;10.25;;
11338;SDS011;5724;42.684;23.252;2023-07-13T07:09:16;17.05;;;9.93;;
11338;SDS011;5724;42.684;23.252;2023-07-13T07:11:42;16.52;;;9.55;;
11338;SDS011;5724;42.684;23.252;2023-07-13T07:14:07;12.38;;;11.25;;
11338;SDS011;5724;42.684;23.252;2023-07-13T07:16:33;15.55;;;10.43;;
11338;SDS011;5724;42.684;23.252;2023-07-13T07:18:58;14.48;;;10.05;;
11338;SDS011;5724;42.684;23.252;2023-07-13T07:21:24;16.08;;;11.05;;
11338;SDS011;5724;42.684;23.252;2023-07-13T07:23:51;11.50;;;10.45;;
11338;SDS011;5724;42.684;23.252;2023-07-13T07:26:17;15.40;;;10.88;;
11338;SDS011;5724;42.684;23.252;2023-07-13T07:28:42;10.55;;;9.63;;
11338;SDS011;5724;42.684;23.252;2023-07-13T07:31:08;15.77;;;10.85;;
11338;SDS011;5724;42.684;23.252;2023-07-13T07:33:34;11.82;;;10.57;;
11338;SDS011;5724;42.684;23.252;2023-07-13T07:36:00;12.52;;;11.38;;
11338;SDS011;5724;42.684;23.252;2023-07-13T07:38:25;11.95;;;10.70;;
11338;SDS011;5724;42.684;23.252;2023-07-13T07:40:52;15.52;;;10.52;;
11338;SDS011;5724;42.684;23.252;2023-07-13T07:43:18;16.65;;;11.45;;
11338;SDS011;5724;42.684;23.252;2023-07-13T07:45:44;11.60;;;10.52;;
11338;SDS011;5724;42.684;23.252;2023-07-13T07:48:10;14.18;;;9.98;;
11338;SDS011;5724;42.684;23.252;2023-07-13T07:50:36;10.65;;;9.55;;
11338;SDS011;5724;42.684;23.252;2023-07-13T07:53:04;15.98;;;10.88;;
11338;SDS011;5724;42.684;23.252;2023-07-13T07:55:33;17.40;;;10.70;;
11338;SDS011;5724;42.684;23.252;2023-07-13T07:58:00;12.00;;;10.57;;
11338;SDS011;5724;42.684;23.252;2023-07-13T08:00:26;12.88;;;10.18;;
11338;SDS011;5724;42.684;23.252;2023-07-13T08:02:51;17.08;;;9.90;;
11338;SDS011;5724;42.684;23.252;2023-07-13T08:05:17;12.10;;;10.90;;
11338;SDS011;5724;42.684;23.252;2023-07-13T08:07:43;11.25;;;10.23;;
11338;SDS011;5724;42.684;23.252;2023-07-13T08:10:08;12.77;;;10.25;;
11338;SDS011;5724;42.684;23.252;2023-07-13T08:12:35;19.73;;;11.88;;
11338;SDS011;5724;42.684;23.252;2023-07-13T08:15:01;13.48;;;9.82;;
11338;SDS011;5724;42.684;23.252;2023-07-13T08:17:26;11.40;;;10.18;;
11338;SDS011;5724;42.684;23.252;2023-07-13T08:19:52;12.30;;;9.88;;
11338;SDS011;5724;42.684;23.252;2023-07-13T08:22:18;10.57;;;8.82;;
11338;SDS011;5724;42.684;23.252;2023-07-13T08:24:44;9.88;;;8.32;;
11338;SDS011;5724;42.684;23.252;2023-07-13T08:27:12;14.35;;;9.27;;
11338;SDS011;5724;42.684;23.252;2023-07-13T08:29:38;13.35;;;9.00;;
11338;SDS011;5724;42.684;23.252;2023-07-13T08:32:05;9.73;;;8.50;;
11338;SDS011;5724;42.684;23.252;2023-07-13T08:34:34;10.00;;;8.88;;
11338;SDS011;5724;42.684;23.252;2023-07-13T08:39:44;13.10;;;8.40;;
11338;SDS011;5724;42.684;23.252;2023-07-13T08:44:57;9.32;;;8.40;;
11338;SDS011;5724;42.684;23.252;2023-07-13T08:47:31;13.82;;;8.27;;
11338;SDS011;5724;42.684;23.252;2023-07-13T08:50:01;12.90;;;7.97;;
11338;SDS011;5724;42.684;23.252;2023-07-13T08:52:35;16.42;;;8.20;;
11338;SDS011;5724;42.684;23.252;2023-07-13T08:55:26;10.18;;;8.07;;
11338;SDS011;5724;42.684;23.252;2023-07-13T08:58:01;13.18;;;8.20;;
11338;SDS011;5724;42.684;23.252;2023-07-13T09:00:37;8.55;;;8.00;;
11338;SDS011;5724;42.684;23.252;2023-07-13T09:03:23;9.73;;;8.75;;
11338;SDS011;5724;42.684;23.252;2023-07-13T09:05:54;10.93;;;8.75;;
11338;SDS011;5724;42.684;23.252;2023-07-13T09:14:23;12.13;;;8.18;;
11338;SDS011;5724;42.684;23.252;2023-07-13T09:16:52;12.45;;;7.55;;
11338;SDS011;5724;42.684;23.252;2023-07-13T09:19:21;7.57;;;6.97;;
11338;SDS011;5724;42.684;23.252;2023-07-13T09:21:53;5.60;;;4.90;;
11338;SDS011;5724;42.684;23.252;2023-07-13T09:27:18;7.28;;;6.18;;
11338;SDS011;5724;42.684;23.252;2023-07-13T09:29:50;7.35;;;6.75;;
11338;SDS011;5724;42.684;23.252;2023-07-13T09:32:23;8.60;;;7.03;;
11338;SDS011;5724;42.684;23.252;2023-07-13T09:34:52;6.20;;;4.95;;
11338;SDS011;5724;42.684;23.252;2023-07-13T09:37:20;10.75;;;5.13;;
11338;SDS011;5724;42.684;23.252;2023-07-13T09:39:48;4.50;;;4.10;;
11338;SDS011;5724;42.684;23.252;2023-07-13T09:42:18;4.85;;;4.45;;
11338;SDS011;5724;42.684;23.252;2023-07-13T09:44:56;5.85;;;4.32;;
11338;SDS011;5724;42.684;23.252;2023-07-13T09:50:02;11.27;;;4.80;;
11338;SDS011;5724;42.684;23.252;2023-07-13T09:52:44;6.78;;;5.10;;
11338;SDS011;5724;42.684;23.252;2023-07-13T09:55:30;4.88;;;4.45;;
11338;SDS011;5724;42.684;23.252;2023-07-13T10:00:40;6.82;;;4.78;;
11338;SDS011;5724;42.684;23.252;2023-07-13T10:03:18;13.65;;;5.25;;
11338;SDS011;5724;42.684;23.252;2023-07-13T10:05:47;5.05;;;4.80;;
11338;SDS011;5724;42.684;23.252;2023-07-13T10:08:25;5.63;;;5.05;;
11338;SDS011;5724;42.684;23.252;2023-07-13T10:13:44;7.72;;;5.20;;
11338;SDS011;5724;42.684;23.252;2023-07-13T10:16:16;7.57;;;4.90;;
11338;SDS011;5724;42.684;23.252;2023-07-13T10:18:58;5.53;;;4.90;;
11338;SDS011;5724;42.684;23.252;2023-07-13T10:21:30;6.32;;;4.85;;
11338;SDS011;5724;42.684;23.252;2023-07-13T10:24:15;5.88;;;4.78;;
11338;SDS011;5724;42.684;23.252;2023-07-13T10:29:48;5.95;;;5.03;;
11338;SDS011;5724;42.684;23.252;2023-07-13T10:32:24;8.27;;;4.97;;
11338;SDS011;5724;42.684;23.252;2023-07-13T10:34:50;5.47;;;4.90;;
11338;SDS011;5724;42.684;23.252;2023-07-13T10:37:27;6.80;;;4.57;;
11338;SDS011;5724;42.684;23.252;2023-07-13T10:40:02;5.15;;;4.68;;
11338;SDS011;5724;42.684;23.252;2023-07-13T10:42:32;6.32;;;4.60;;
11338;SDS011;5724;42.684;23.252;2023-07-13T10:45:08;7.28;;;4.90;;
11338;SDS011;5724;42.684;23.252;2023-07-13T10:47:47;5.47;;;4.90;;
11338;SDS011;5724;42.684;23.252;2023-07-13T10:50:17;6.97;;;4.78;;
11338;SDS011;5724;42.684;23.252;2023-07-13T10:52:50;7.28;;;4.78;;
11338;SDS011;5724;42.684;23.252;2023-07-13T10:55:38;8.85;;;5.40;;
11338;SDS011;5724;42.684;23.252;2023-07-13T10:59:01;5.15;;;4.50;;
11338;SDS011;5724;42.684;23.252;2023-07-13T11:01:16;5.60;;;5.10;;
11338;SDS011;5724;42.684;23.252;2023-07-13T11:09:03;5.13;;;4.70;;
11338;SDS011;5724;42.684;23.252;2023-07-13T11:11:55;5.80;;;5.05;;
11338;SDS011;5724;42.684;23.252;2023-07-13T11:14:25;8.25;;;4.88;;
11338;SDS011;5724;42.684;23.252;2023-07-13T11:17:38;5.22;;;4.60;;
11338;SDS011;5724;42.684;23.252;2023-07-13T11:33:09;5.45;;;4.95;;
11338;SDS011;5724;42.684;23.252;2023-07-13T11:38:36;5.80;;;4.78;;
11338;SDS011;5724;42.684;23.252;2023-07-13T11:41:13;8.93;;;5.55;;
11338;SDS011;5724;42.684;23.252;2023-07-13T11:43:42;7.55;;;5.30;;
11338;SDS011;5724;42.684;23.252;2023-07-13T11:46:12;6.85;;;5.50;;
11338;SDS011;5724;42.684;23.252;2023-07-13T11:48:44;8.43;;;5.47;;
11338;SDS011;5724;42.684;23.252;2023-07-13T11:51:15;5.57;;;5.07;;
11338;SDS011;5724;42.684;23.252;2023-07-13T11:53:47;8.95;;;5.05;;
11338;SDS011;5724;42.684;23.252;2023-07-13T11:56:15;5.05;;;4.65;;
11338;SDS011;5724;42.684;23.252;2023-07-13T11:58:41;6.22;;;5.32;;
11338;SDS011;5724;42.684;23.252;2023-07-13T12:01:10;6.75;;;5.25;;
11338;SDS011;5724;42.684;23.252;2023-07-13T12:03:43;5.60;;;4.50;;
11338;SDS011;5724;42.684;23.252;2023-07-13T12:09:00;6.22;;;4.30;;
11338;SDS011;5724;42.684;23.252;2023-07-13T12:11:28;6.65;;;4.90;;
11338;SDS011;5724;42.684;23.252;2023-07-13T12:13:54;5.65;;;4.75;;
11338;SDS011;5724;42.684;23.252;2023-07-13T12:16:29;6.82;;;4.70;;
11338;SDS011;5724;42.684;23.252;2023-07-13T12:18:58;8.95;;;4.32;;
11338;SDS011;5724;42.684;23.252;2023-07-13T12:21:30;4.85;;;4.03;;
11338;SDS011;5724;42.684;23.252;2023-07-13T12:23:58;7.35;;;5.10;;
11338;SDS011;5724;42.684;23.252;2023-07-13T12:26:24;6.13;;;4.75;;
11338;SDS011;5724;42.684;23.252;2023-07-13T12:28:52;6.53;;;4.22;;
11338;SDS011;5724;42.684;23.252;2023-07-13T12:31:26;7.32;;;4.53;;
11338;SDS011;5724;42.684;23.252;2023-07-13T12:34:14;4.50;;;4.18;;
11338;SDS011;5724;42.684;23.252;2023-07-13T12:36:51;4.50;;;4.18;;
11338;SDS011;5724;42.684;23.252;2023-07-13T12:39:30;6.15;;;4.38;;
11338;SDS011;5724;42.684;23.252;2023-07-13T12:45:01;6.00;;;4.40;;
11338;SDS011;5724;42.684;23.252;2023-07-13T12:47:29;4.45;;;4.05;;
11338;SDS011;5724;42.684;23.252;2023-07-13T12:49:56;4.93;;;4.53;;
11338;SDS011;5724;42.684;23.252;2023-07-13T12:52:31;5.45;;;4.72;;
11338;SDS011;5724;42.684;23.252;2023-07-13T12:55:02;10.23;;;4.07;;
11338;SDS011;5724;42.684;23.252;2023-07-13T12:57:30;5.38;;;4.38;;
11338;SDS011;5724;42.684;23.252;2023-07-13T12:59:55;5.20;;;4.07;;
11338;SDS011;5724;42.684;23.252;2023-07-13T13:02:25;5.07;;;4.68;;
11338;SDS011;5724;42.684;23.252;2023-07-13T13:04:56;4.60;;;4.20;;
11338;SDS011;5724;42.684;23.252;2023-07-13T13:07:23;5.75;;;4.63;;
11338;SDS011;5724;42.684;23.252;2023-07-13T13:09:49;5.28;;;4.78;;
11338;SDS011;5724;42.684;23.252;2023-07-13T13:12:15;5.18;;;4.65;;
11338;SDS011;5724;42.684;23.252;2023-07-13T13:14:42;9.32;;;5.00;;
11338;SDS011;5724;42.684;23.252;2023-07-13T13:17:15;5.10;;;4.43;;
11338;SDS011;5724;42.684;23.252;2023-07-13T13:19:44;4.78;;;4.15;;
11338;SDS011;5724;42.684;23.252;2023-07-13T13:22:10;8.63;;;5.20;;
11338;SDS011;5724;42.684;23.252;2023-07-13T13:24:36;9.15;;;4.07;;
11338;SDS011;5724;42.684;23.252;2023-07-13T13:27:01;6.28;;;4.22;;
11338;SDS011;5724;42.684;23.252;2023-07-13T13:29:27;4.95;;;4.45;;
11338;SDS011;5724;42.684;23.252;2023-07-13T13:31:53;5.45;;;4.13;;
11338;SDS011;5724;42.684;23.252;2023-07-13T13:34:21;5.82;;;4.10;;
11338;SDS011;5724;42.684;23.252;2023-07-13T13:36:50;7.68;;;4.38;;
11338;SDS011;5724;42.684;23.252;2023-07-13T13:39:23;6.20;;;4.97;;
11338;SDS011;5724;42.684;23.252;2023-07-13T13:41:50;5.20;;;4.63;;
11338;SDS011;5724;42.684;23.252;2023-07-13T13:44:17;9.50;;;4.40;;
11338;SDS011;5724;42.684;23.252;2023-07-13T13:46:44;6.15;;;4.55;;
11338;SDS011;5724;42.684;23.252;2023-07-13T13:49:19;5.57;;;4.93;;
11338;SDS011;5724;42.684;23.252;2023-07-13T13:51:47;8.45;;;3.85;;
11338;SDS011;5724;42.684;23.252;2023-07-13T13:54:14;8.00;;;4.57;;
11338;SDS011;5724;42.684;23.252;2023-07-13T13:56:46;7.63;;;4.35;;
11338;SDS011;5724;42.684;23.252;2023-07-13T13:59:13;7.13;;;4.20;;
11338;SDS011;5724;42.684;23.252;2023-07-13T14:01:39;5.10;;;4.32;;
11338;SDS011;5724;42.684;23.252;2023-07-13T14:04:06;5.25;;;4.78;;
11338;SDS011;5724;42.684;23.252;2023-07-13T14:06:34;5.18;;;4.22;;
11338;SDS011;5724;42.684;23.252;2023-07-13T14:09:00;5.50;;;4.80;;
11338;SDS011;5724;42.684;23.252;2023-07-13T14:11:27;5.78;;;4.85;;
11338;SDS011;5724;42.684;23.252;2023-07-13T14:13:54;5.10;;;4.47;;
11338;SDS011;5724;42.684;23.252;2023-07-13T14:16:23;5.13;;;4.53;;
11338;SDS011;5724;42.684;23.252;2023-07-13T14:18:59;6.63;;;4.30;;
11338;SDS011;5724;42.684;23.252;2023-07-13T14:21:25;5.05;;;4.75;;
11338;SDS011;5724;42.684;23.252;2023-07-13T14:23:53;9.00;;;4.60;;
11338;SDS011;5724;42.684;23.252;2023-07-13T14:26:19;5.53;;;4.70;;
11338;SDS011;5724;42.684;23.252;2023-07-13T14:28:48;6.15;;;4.93;;
11338;SDS011;5724;42.684;23.252;2023-07-13T14:31:16;7.28;;;5.00;;
11338;SDS011;5724;42.684;23.252;2023-07-13T14:33:42;5.18;;;4.00;;
11338;SDS011;5724;42.684;23.252;2023-07-13T14:38:58;4.97;;;4.47;;
11338;SDS011;5724;42.684;23.252;2023-07-13T14:41:26;4.82;;;4.43;;
11338;SDS011;5724;42.684;23.252;2023-07-13T14:43:52;4.53;;;4.10;;
11338;SDS011;5724;42.684;23.252;2023-07-13T14:46:27;5.40;;;4.53;;
11338;SDS011;5724;42.684;23.252;2023-07-13T14:48:57;9.43;;;5.20;;
11338;SDS011;5724;42.684;23.252;2023-07-13T14:51:27;5.47;;;4.30;;
11338;SDS011;5724;42.684;23.252;2023-07-13T14:53:54;5.45;;;4.90;;
11338;SDS011;5724;42.684;23.252;2023-07-13T14:56:20;6.75;;;5.07;;
11338;SDS011;5724;42.684;23.252;2023-07-13T14:58:46;10.00;;;4.80;;
11338;SDS011;5724;42.684;23.252;2023-07-13T15:01:12;5.07;;;4.68;;
11338;SDS011;5724;42.684;23.252;2023-07-13T15:03:43;10.77;;;4.60;;
11338;SDS011;5724;42.684;23.252;2023-07-13T15:06:11;4.93;;;4.53;;
11338;SDS011;5724;42.684;23.252;2023-07-13T15:08:38;5.20;;;4.70;;
11338;SDS011;5724;42.684;23.252;2023-07-13T15:11:05;9.13;;;4.63;;
11338;SDS011;5724;42.684;23.252;2023-07-13T15:13:31;7.78;;;4.65;;
11338;SDS011;5724;42.684;23.252;2023-07-13T15:15:56;5.40;;;4.88;;
11338;SDS011;5724;42.684;23.252;2023-07-13T15:18:22;7.97;;;5.15;;
11338;SDS011;5724;42.684;23.252;2023-07-13T15:20:50;6.50;;;6.00;;
11338;SDS011;5724;42.684;23.252;2023-07-13T15:23:20;5.05;;;4.53;;
11338;SDS011;5724;42.684;23.252;2023-07-13T15:25:47;5.13;;;4.72;;
11338;SDS011;5724;42.684;23.252;2023-07-13T15:28:14;7.97;;;5.50;;
11338;SDS011;5724;42.684;23.252;2023-07-13T15:30:44;7.07;;;4.85;;
11338;SDS011;5724;42.684;23.252;2023-07-13T15:33:16;5.38;;;4.53;;
11338;SDS011;5724;42.684;23.252;2023-07-13T15:35:43;5.90;;;5.13;;
11338;SDS011;5724;42.684;23.252;2023-07-13T15:38:17;7.32;;;4.25;;
11338;SDS011;5724;42.684;23.252;2023-07-13T15:40:46;4.32;;;4.03;;
11338;SDS011;5724;42.684;23.252;2023-07-13T15:43:13;5.78;;;4.90;;
11338;SDS011;5724;42.684;23.252;2023-07-13T15:45:40;7.50;;;4.70;;
11338;SDS011;5724;42.684;23.252;2023-07-13T15:48:11;4.75;;;4.35;;
11338;SDS011;5724;42.684;23.252;2023-07-13T15:50:45;7.68;;;4.65;;